createdAt,value
2022-08-18T00:02:03.704Z,71.53
2022-08-18T00:04:35.771Z,62.35
2022-08-18T00:07:04.843Z,75.95
2022-08-18T00:09:35.822Z,73.80
2022-08-18T00:12:06.872Z,60.95
2022-08-18T00:14:35.171Z,73.53
2022-08-18T00:17:03.034Z,65.72
2022-08-18T00:19:47.409Z,69.38
2022-08-18T00:22:18.794Z,73.28
2022-08-18T00:24:52.467Z,60.70
2022-08-18T00:27:23.125Z,79.60
2022-08-18T00:29:52.372Z,79.90
2022-08-18T00:32:22.969Z,81.60
2022-08-18T00:34:50.994Z,80.32
2022-08-18T00:37:19.065Z,81.72
2022-08-18T00:39:48.368Z,83.63
2022-08-18T00:42:27.664Z,84.32
2022-08-18T00:45:00.998Z,67.85
2022-08-18T00:47:36.393Z,72.18
2022-08-18T00:50:15.056Z,68.70
2022-08-18T00:52:48.019Z,78.45
2022-08-18T00:55:19.408Z,68.53
2022-08-18T00:57:49.728Z,78.57
2022-08-18T01:00:18.123Z,80.50
2022-08-18T01:02:55.532Z,85.60
2022-08-18T01:05:30.441Z,77.72
2022-08-18T01:07:58.407Z,80.43
2022-08-18T01:10:27.853Z,72.05
2022-08-18T01:12:58.528Z,80.32
2022-08-18T01:15:30.454Z,77.57
2022-08-18T01:18:17.573Z,73.82
2022-08-18T01:21:16.034Z,69.20
2022-08-18T01:23:46.678Z,76.30
2022-08-18T01:26:16.761Z,80.05
2022-08-18T01:28:46.491Z,81.60
2022-08-18T01:31:32.426Z,71.22
2022-08-18T01:34:01.139Z,82.88
2022-08-18T01:36:29.832Z,84.22
2022-08-18T01:38:58.979Z,77.80
2022-08-18T01:41:30.267Z,68.25
2022-08-18T01:44:00.137Z,77.15
2022-08-18T01:46:29.552Z,76.55
2022-08-18T01:49:01.226Z,70.07
2022-08-18T01:51:39.327Z,78.20
2022-08-18T01:54:12.821Z,77.20
2022-08-18T01:56:42.365Z,65.70
2022-08-18T01:59:14.612Z,80.43
2022-08-18T02:04:36.148Z,76.25
2022-08-18T02:07:07.665Z,82.05
2022-08-18T02:09:38.402Z,83.32
2022-08-18T02:12:07.994Z,79.80
2022-08-18T02:14:36.799Z,85.15
2022-08-18T02:17:07.698Z,80.85
2022-08-18T02:19:36.699Z,74.80
2022-08-18T02:22:05.987Z,82.93
2022-08-18T02:24:33.729Z,75.28
2022-08-18T02:27:02.882Z,79.38
2022-08-18T02:29:30.642Z,71.30
2022-08-18T02:31:58.519Z,71.82
2022-08-18T02:34:26.563Z,78.10
2022-08-18T02:36:54.622Z,80.45
2022-08-18T02:39:22.507Z,72.75
2022-08-18T02:41:50.336Z,74.45
2022-08-18T02:44:19.563Z,81.55
2022-08-18T02:46:47.390Z,80.25
2022-08-18T02:49:15.163Z,78.70
2022-08-18T02:51:46.263Z,65.32
2022-08-18T02:54:14.093Z,74.97
2022-08-18T02:56:42.637Z,75.63
2022-08-18T02:59:13.344Z,72.03
2022-08-18T03:01:45.939Z,74.60
2022-08-18T03:04:17.556Z,79.30
2022-08-18T03:06:46.350Z,73.00
2022-08-18T03:09:16.690Z,67.47
2022-08-18T03:11:44.856Z,73.18
2022-08-18T03:14:13.452Z,62.90
2022-08-18T03:16:53.667Z,64.45
2022-08-18T03:19:23.783Z,74.50
2022-08-18T03:21:52.786Z,67.55
2022-08-18T03:24:22.742Z,71.82
2022-08-18T03:26:52.944Z,64.90
2022-08-18T03:29:21.513Z,63.63
2022-08-18T03:31:51.490Z,72.05
2022-08-18T03:34:21.392Z,63.55
2022-08-18T03:36:49.904Z,61.47
2022-08-18T03:39:19.118Z,64.13
2022-08-18T03:41:59.458Z,60.35
2022-08-18T03:44:30.750Z,64.38
2022-08-18T03:47:01.469Z,71.07
2022-08-18T03:49:29.656Z,72.35
2022-08-18T03:52:00.066Z,73.88
2022-08-18T03:54:28.505Z,70.90
2022-08-18T03:56:56.308Z,62.38
2022-08-18T03:59:27.035Z,72.35
2022-08-18T04:01:56.329Z,71.05
2022-08-18T04:04:27.597Z,69.40
2022-08-18T04:06:58.450Z,70.75
2022-08-18T04:09:29.294Z,73.28
2022-08-18T04:11:57.976Z,61.70
2022-08-18T04:14:29.714Z,59.67
2022-08-18T04:16:58.491Z,61.03
2022-08-18T04:19:28.262Z,60.80
2022-08-18T04:21:58.188Z,67.75
2022-08-18T04:24:28.011Z,68.80
2022-08-18T04:26:58.327Z,63.20
2022-08-18T04:29:26.133Z,62.40
2022-08-18T04:31:53.911Z,71.57
2022-08-18T04:34:23.437Z,62.97
2022-08-18T04:36:54.575Z,65.40
2022-08-18T04:39:23.455Z,70.05
2022-08-18T04:41:51.945Z,60.13
2022-08-18T04:44:21.617Z,68.75
2022-08-18T04:46:52.779Z,66.68
2022-08-18T04:49:26.114Z,67.78
2022-08-18T04:52:30.983Z,67.63
2022-08-18T04:55:03.635Z,70.38
2022-08-18T04:57:34.842Z,65.03
2022-08-18T05:00:04.125Z,67.47
2022-08-18T05:02:33.026Z,67.55
2022-08-18T05:05:04.099Z,69.28
2022-08-18T05:07:33.675Z,68.15
2022-08-18T05:10:01.692Z,68.90
2022-08-18T05:12:29.720Z,72.95
2022-08-18T05:14:57.968Z,73.22
2022-08-18T05:17:30.576Z,68.13
2022-08-18T05:20:00.047Z,72.40
2022-08-18T05:22:31.019Z,70.50
2022-08-18T05:25:01.038Z,66.72
2022-08-18T05:27:33.304Z,70.22
2022-08-18T05:30:01.197Z,71.53
2022-08-18T05:32:47.662Z,70.57
2022-08-18T05:35:23.226Z,65.60
2022-08-18T05:38:27.977Z,68.63
2022-08-18T05:41:08.619Z,63.00
2022-08-18T05:43:51.381Z,48.15
2022-08-18T05:46:21.944Z,57.00
2022-08-18T05:48:50.035Z,64.13
2022-08-18T05:51:22.886Z,47.17
2022-08-18T05:54:08.032Z,44.78
2022-08-18T05:56:48.901Z,55.80
2022-08-18T05:59:23.685Z,54.78
2022-08-18T06:01:57.646Z,44.30
2022-08-18T06:04:34.339Z,41.47
2022-08-18T06:07:06.516Z,40.35
2022-08-18T06:12:22.632Z,45.72
2022-08-18T06:14:51.071Z,50.95
2022-08-18T06:17:36.811Z,46.60
2022-08-18T06:20:16.179Z,40.45
2022-08-18T06:22:59.617Z,46.65
2022-08-18T06:25:35.778Z,37.63
2022-08-18T06:28:10.969Z,38.75
2022-08-18T06:30:50.063Z,56.35
2022-08-18T06:33:36.049Z,38.05
2022-08-18T06:36:12.635Z,40.72
2022-08-18T06:38:57.828Z,44.58
2022-08-18T06:41:41.688Z,44.05
2022-08-18T06:44:14.833Z,49.85
2022-08-18T06:46:48.178Z,42.17
2022-08-18T06:49:30.169Z,38.15
2022-08-18T06:51:57.987Z,40.80
2022-08-18T06:54:31.332Z,39.33
2022-08-18T06:57:00.117Z,43.75
2022-08-18T06:59:31.612Z,42.67
2022-08-18T07:02:02.635Z,37.20
2022-08-18T07:04:39.889Z,37.30
2022-08-18T07:07:17.290Z,38.15
2022-08-18T07:09:45.398Z,38.83
2022-08-18T07:12:21.897Z,38.03
2022-08-18T07:14:53.042Z,37.92
2022-08-18T07:17:43.100Z,35.35
2022-08-18T07:20:21.391Z,30.48
2022-08-18T07:22:59.899Z,32.97
2022-08-18T07:25:32.075Z,27.42
2022-08-18T07:28:01.985Z,27.60
2022-08-18T07:30:35.978Z,33.38
2022-08-18T07:33:12.188Z,28.77
2022-08-18T07:35:46.018Z,27.05
2022-08-18T07:38:41.952Z,23.45
2022-08-18T07:41:20.210Z,27.08
2022-08-18T07:44:00.731Z,23.33
2022-08-18T07:46:37.613Z,22.63
2022-08-18T07:49:06.408Z,27.88
2022-08-18T07:51:45.968Z,20.40
2022-08-18T07:54:47.834Z,20.05
2022-08-18T07:57:20.070Z,19.70
2022-08-18T07:59:56.329Z,17.73
2022-08-18T08:02:35.436Z,20.80
2022-08-18T08:05:11.999Z,21.50
2022-08-18T08:07:47.196Z,22.02
2022-08-18T08:10:29.745Z,18.95
2022-08-18T08:13:09.282Z,19.90
2022-08-18T08:15:56.204Z,21.38
2022-08-18T08:18:37.932Z,14.25
2022-08-18T08:21:10.916Z,16.63
2022-08-18T08:23:47.597Z,24.42
2022-08-18T08:26:27.912Z,16.58
2022-08-18T08:29:08.953Z,16.85
2022-08-18T08:31:47.061Z,13.13
2022-08-18T08:34:22.175Z,19.42
2022-08-18T08:36:54.939Z,16.80
2022-08-18T08:39:28.712Z,17.20
2022-08-18T08:42:31.459Z,19.98
2022-08-18T08:45:00.971Z,13.95
2022-08-18T08:47:33.910Z,15.02
2022-08-18T08:50:05.736Z,16.35
2022-08-18T08:52:43.415Z,15.82
2022-08-18T08:55:16.616Z,11.95
2022-08-18T08:57:51.513Z,17.33
2022-08-18T09:00:20.083Z,17.75
2022-08-18T09:03:14.695Z,17.15
2022-08-18T09:05:56.769Z,12.55
2022-08-18T09:08:52.012Z,15.93
2022-08-18T09:11:55.206Z,16.48
2022-08-18T09:14:46.401Z,14.60
2022-08-18T09:17:57.800Z,14.90
2022-08-18T09:20:51.211Z,13.85
2022-08-18T09:23:22.049Z,12.70
2022-08-18T09:25:52.445Z,13.43
2022-08-18T09:28:24.791Z,13.32
2022-08-18T09:31:19.892Z,17.17
2022-08-18T09:34:37.378Z,17.45
2022-08-18T09:37:17.453Z,16.05
2022-08-18T09:40:14.572Z,14.82
2022-08-18T09:42:50.365Z,14.52
2022-08-18T09:45:55.338Z,13.60
2022-08-18T09:48:28.284Z,12.80
2022-08-18T09:51:20.767Z,12.98
2022-08-18T09:54:24.876Z,11.98
2022-08-18T09:57:22.420Z,12.32
2022-08-18T10:00:26.532Z,10.63
2022-08-18T10:03:14.088Z,10.48
2022-08-18T10:12:21.623Z,14.15
2022-08-18T10:15:26.978Z,16.05
2022-08-18T10:18:33.269Z,17.92
2022-08-18T10:21:09.782Z,17.13
2022-08-18T10:24:02.708Z,18.20
2022-08-18T10:27:08.203Z,17.45
2022-08-18T10:30:01.843Z,18.58
2022-08-18T10:32:44.388Z,16.38
2022-08-18T10:35:58.793Z,18.80
2022-08-18T10:38:37.165Z,16.23
2022-08-18T10:41:15.739Z,16.95
2022-08-18T10:43:55.846Z,15.57
2022-08-18T10:46:31.915Z,14.35
2022-08-18T10:49:09.366Z,15.55
2022-08-18T10:52:01.418Z,14.75
2022-08-18T10:54:51.659Z,12.07
2022-08-18T10:57:30.550Z,11.40
2022-08-18T11:00:04.034Z,9.82
2022-08-18T11:03:02.602Z,10.15
2022-08-18T11:05:43.179Z,11.13
2022-08-18T11:08:17.798Z,9.65
2022-08-18T11:11:27.621Z,10.18
2022-08-18T11:13:50.790Z,8.50
2022-08-18T11:16:31.876Z,9.57
2022-08-18T11:19:18.185Z,9.52
2022-08-18T11:21:51.427Z,9.82
2022-08-18T11:24:25.058Z,8.05
2022-08-18T11:26:55.020Z,9.35
2022-08-18T11:29:33.191Z,10.68
2022-08-18T11:32:11.056Z,9.15
2022-08-18T11:41:08.802Z,9.63
2022-08-18T11:43:30.022Z,8.55
2022-08-18T11:46:16.602Z,8.95
2022-08-18T11:48:52.891Z,8.93
2022-08-18T11:51:27.336Z,9.13
2022-08-18T11:54:00.119Z,9.00
2022-08-18T11:56:32.345Z,8.73
2022-08-18T11:59:06.210Z,10.15
2022-08-18T12:01:42.262Z,9.52
2022-08-18T12:04:22.717Z,9.35
2022-08-18T12:06:59.683Z,8.80
2022-08-18T12:10:17.044Z,9.13
2022-08-18T12:12:28.217Z,8.13
2022-08-18T12:17:52.167Z,8.43
2022-08-18T12:20:20.859Z,8.15
2022-08-18T12:22:50.446Z,7.38
2022-08-18T12:25:24.492Z,8.10
2022-08-18T12:27:52.885Z,9.30
2022-08-18T12:30:20.783Z,7.78
2022-08-18T12:35:36.420Z,8.05
2022-08-18T12:38:14.016Z,7.35
2022-08-18T12:40:42.826Z,7.05
2022-08-18T12:43:10.767Z,7.05
2022-08-18T12:45:39.236Z,7.82
2022-08-18T12:48:08.092Z,6.95
2022-08-18T12:53:30.507Z,8.38
2022-08-18T12:58:55.514Z,6.85
2022-08-18T13:01:25.008Z,7.10
2022-08-18T13:07:00.097Z,5.45
2022-08-18T13:09:48.008Z,7.57
2022-08-18T13:12:19.932Z,6.30
2022-08-18T13:14:49.828Z,5.03
2022-08-18T13:17:32.861Z,5.90
2022-08-18T13:20:05.162Z,6.38
2022-08-18T13:22:33.511Z,5.47
2022-08-18T13:25:05.255Z,5.90
2022-08-18T13:30:29.635Z,5.70
2022-08-18T13:33:00.251Z,5.85
2022-08-18T13:35:38.396Z,5.60
2022-08-18T13:38:18.914Z,6.80
2022-08-18T13:40:51.823Z,5.82
2022-08-18T13:43:25.914Z,5.80
2022-08-18T13:45:56.302Z,5.70
2022-08-18T13:48:25.538Z,5.53
2022-08-18T13:50:55.698Z,5.57
2022-08-18T13:53:26.321Z,5.57
2022-08-18T13:55:59.723Z,5.87
2022-08-18T13:58:29.009Z,5.38
2022-08-18T14:03:48.223Z,6.00
2022-08-18T14:06:22.194Z,5.93
2022-08-18T14:08:51.520Z,5.90
2022-08-18T14:11:23.666Z,5.50
2022-08-18T14:13:54.156Z,5.28
2022-08-18T14:16:22.926Z,5.63
2022-08-18T14:19:12.889Z,5.38
2022-08-18T14:22:02.998Z,5.60
2022-08-18T14:24:52.186Z,5.15
2022-08-18T14:31:11.486Z,5.28
2022-08-18T14:33:50.480Z,4.97
2022-08-18T14:36:20.554Z,4.65
2022-08-18T14:38:58.290Z,4.95
2022-08-18T14:41:27.362Z,5.22
2022-08-18T14:44:12.554Z,5.50
2022-08-18T14:46:42.030Z,5.90
2022-08-18T14:49:28.123Z,5.38
2022-08-18T14:51:57.313Z,5.18
2022-08-18T14:54:28.328Z,4.88
2022-08-18T14:56:57.447Z,5.03
2022-08-18T14:59:28.402Z,4.38
2022-08-18T15:01:56.202Z,4.60
2022-08-18T15:04:24.170Z,4.80
2022-08-18T15:06:56.069Z,4.70
2022-08-18T15:09:26.946Z,4.78
2022-08-18T15:11:56.737Z,4.97
2022-08-18T15:14:33.166Z,4.38
2022-08-18T15:17:02.843Z,4.43
2022-08-18T15:20:01.575Z,5.35
2022-08-18T15:22:35.929Z,5.00
2022-08-18T15:25:24.188Z,4.70
2022-08-18T15:27:53.003Z,5.13
2022-08-18T15:30:22.930Z,5.15
2022-08-18T15:32:51.267Z,5.40
2022-08-18T15:35:20.427Z,5.28
2022-08-18T15:37:51.430Z,5.25
2022-08-18T15:40:31.169Z,5.43
2022-08-18T15:43:09.757Z,5.32
2022-08-18T15:45:56.043Z,5.53
2022-08-18T15:48:27.103Z,5.90
2022-08-18T15:50:56.147Z,5.72
2022-08-18T15:53:29.769Z,5.72
2022-08-18T15:55:58.398Z,6.07
2022-08-18T15:58:31.998Z,5.80
2022-08-18T16:01:01.457Z,5.63
2022-08-18T16:03:50.011Z,5.45
2022-08-18T16:06:23.603Z,5.28
2022-08-18T16:08:55.856Z,4.70
2022-08-18T16:11:29.018Z,4.90
2022-08-18T16:13:59.169Z,5.13
2022-08-18T16:16:36.157Z,5.45
2022-08-18T16:19:05.845Z,5.07
2022-08-18T16:21:34.064Z,4.85
2022-08-18T16:24:01.794Z,4.55
2022-08-18T16:26:30.149Z,5.20
2022-08-18T16:29:01.300Z,4.80
2022-08-18T16:31:37.038Z,4.88
2022-08-18T16:34:05.822Z,4.78
2022-08-18T16:36:33.545Z,4.90
2022-08-18T16:39:26.028Z,4.75
2022-08-18T16:41:53.783Z,5.15
2022-08-18T16:44:21.664Z,4.55
2022-08-18T16:46:51.733Z,4.78
2022-08-18T16:49:20.800Z,4.82
2022-08-18T16:51:48.535Z,4.80
2022-08-18T16:54:16.397Z,4.80
2022-08-18T16:56:44.150Z,5.15
2022-08-18T17:02:20.029Z,5.05
2022-08-18T17:04:47.862Z,6.80
2022-08-18T17:07:15.632Z,4.97
2022-08-18T17:09:43.407Z,5.05
2022-08-18T17:12:11.305Z,5.93
2022-08-18T17:14:39.250Z,6.20
2022-08-18T17:17:10.427Z,6.47
2022-08-18T17:19:38.370Z,10.53
2022-08-18T17:22:08.103Z,7.63
2022-08-18T17:24:35.954Z,5.97
2022-08-18T17:27:25.842Z,6.00
2022-08-18T17:30:02.564Z,6.28
2022-08-18T17:35:15.900Z,6.95
2022-08-18T17:37:49.250Z,6.18
2022-08-18T17:40:21.602Z,5.65
2022-08-18T17:42:51.508Z,6.25
2022-08-18T17:45:21.939Z,6.60
2022-08-18T17:47:57.626Z,5.90
2022-08-18T17:50:46.730Z,6.40
2022-08-18T17:53:15.533Z,6.70
2022-08-18T17:55:48.353Z,6.07
2022-08-18T17:58:21.764Z,6.38
2022-08-18T18:00:49.549Z,6.63
2022-08-18T18:03:18.714Z,5.88
2022-08-18T18:05:54.182Z,6.28
2022-08-18T18:08:22.040Z,7.00
2022-08-18T18:11:07.640Z,5.85
2022-08-18T18:13:35.526Z,6.00
2022-08-18T18:16:21.690Z,6.90
2022-08-18T18:18:59.943Z,6.30
2022-08-18T18:21:55.368Z,6.30
2022-08-18T18:24:24.043Z,6.10
2022-08-18T18:26:53.192Z,6.25
2022-08-18T18:29:27.252Z,5.80
2022-08-18T18:32:00.482Z,5.97
2022-08-18T18:34:33.786Z,6.13
2022-08-18T18:37:03.092Z,5.68
2022-08-18T18:39:34.199Z,6.25
2022-08-18T18:42:20.464Z,6.60
2022-08-18T18:44:53.790Z,5.78
2022-08-18T18:47:39.977Z,5.55
2022-08-18T18:50:17.144Z,5.97
2022-08-18T18:52:52.429Z,6.28
2022-08-18T18:55:25.657Z,6.22
2022-08-18T18:58:07.999Z,5.90
2022-08-18T19:00:44.623Z,6.07
2022-08-18T19:03:28.556Z,5.85
2022-08-18T19:06:14.024Z,5.80
2022-08-18T19:08:50.876Z,5.88
2022-08-18T19:11:29.079Z,5.63
2022-08-18T19:14:07.529Z,5.72
2022-08-18T19:16:42.407Z,5.57
2022-08-18T19:19:36.729Z,5.47
2022-08-18T19:22:18.609Z,5.88
2022-08-18T19:24:56.109Z,6.07
2022-08-18T19:27:34.256Z,5.18
2022-08-18T19:30:06.961Z,6.10
2022-08-18T19:32:40.756Z,5.57
2022-08-18T19:35:12.824Z,5.20
2022-08-18T19:42:59.992Z,5.85
2022-08-18T19:45:35.506Z,5.70
2022-08-18T19:48:08.825Z,5.95
2022-08-18T19:50:43.419Z,5.47
2022-08-18T19:53:26.003Z,5.57
2022-08-18T19:56:29.433Z,5.70
2022-08-18T19:59:19.390Z,5.63
2022-08-18T20:02:04.994Z,5.65
2022-08-18T20:04:59.175Z,5.30
2022-08-18T20:08:03.173Z,5.30
2022-08-18T20:10:43.840Z,4.93
2022-08-18T20:13:33.851Z,5.20
2022-08-18T20:16:43.556Z,5.53
2022-08-18T20:19:39.590Z,5.38
2022-08-18T20:22:10.460Z,5.78
2022-08-18T20:24:52.127Z,5.50
2022-08-18T20:27:36.403Z,5.00
2022-08-18T20:30:32.502Z,4.78
2022-08-18T20:33:12.437Z,4.85
2022-08-18T20:35:45.784Z,4.70
2022-08-18T20:38:54.364Z,4.63
2022-08-18T20:41:38.109Z,4.50
2022-08-18T20:44:40.318Z,4.63
2022-08-18T20:47:23.875Z,4.72
2022-08-18T20:50:12.621Z,5.85
2022-08-18T20:52:46.685Z,4.85
2022-08-18T20:55:26.514Z,5.30
2022-08-18T20:58:03.599Z,5.15
2022-08-18T21:00:33.149Z,5.13
2022-08-18T21:03:06.497Z,6.05
2022-08-18T21:05:40.540Z,5.47
2022-08-18T21:08:27.575Z,4.80
2022-08-18T21:10:57.860Z,4.95
2022-08-18T21:13:31.021Z,4.85
2022-08-18T21:15:59.843Z,5.03
2022-08-18T21:18:28.379Z,5.00
2022-08-18T21:20:59.501Z,4.97
2022-08-18T21:23:30.710Z,4.68
2022-08-18T21:26:06.606Z,4.75
2022-08-18T21:28:38.864Z,5.22
2022-08-18T21:33:59.102Z,5.30
2022-08-18T21:36:32.415Z,4.60
2022-08-18T21:39:05.659Z,5.15
2022-08-18T21:41:35.062Z,5.32
2022-08-18T21:44:06.737Z,5.57
2022-08-18T21:46:34.969Z,5.05
2022-08-18T21:49:07.565Z,5.15
2022-08-18T21:51:47.382Z,4.90
2022-08-18T21:54:17.396Z,4.90
2022-08-18T21:56:45.801Z,5.30
2022-08-18T21:59:15.877Z,5.03
2022-08-18T22:01:53.090Z,5.50
2022-08-18T22:04:27.171Z,5.80
2022-08-18T22:06:58.890Z,5.85
2022-08-18T22:09:48.911Z,6.20
2022-08-18T22:12:48.264Z,6.15
2022-08-18T22:15:20.133Z,5.53
2022-08-18T22:17:54.977Z,5.68
2022-08-18T22:20:57.206Z,5.57
2022-08-18T22:23:55.717Z,6.00
2022-08-18T22:26:27.171Z,5.72
2022-08-18T22:28:59.252Z,6.18
2022-08-18T22:31:30.844Z,5.93
2022-08-18T22:34:03.097Z,5.60
2022-08-18T22:39:02.902Z,5.72
2022-08-18T22:41:32.122Z,5.90
2022-08-18T22:44:00.768Z,6.18
2022-08-18T22:46:29.045Z,6.60
2022-08-18T22:48:56.741Z,6.20
2022-08-18T22:51:27.590Z,6.00
2022-08-18T22:53:56.768Z,5.70
2022-08-18T22:56:35.114Z,6.45
2022-08-18T22:59:13.783Z,6.55
2022-08-18T23:01:48.100Z,6.85
2022-08-18T23:04:17.740Z,6.80
2022-08-18T23:06:51.524Z,6.68
2022-08-18T23:09:24.239Z,6.25
2022-08-18T23:11:54.994Z,6.22
2022-08-18T23:14:23.301Z,6.93
2022-08-18T23:16:51.618Z,6.85
2022-08-18T23:19:21.483Z,6.55
2022-08-18T23:21:49.864Z,6.03
2022-08-18T23:24:18.875Z,7.03
2022-08-18T23:26:47.252Z,7.70
2022-08-18T23:29:16.416Z,6.93
2022-08-18T23:31:46.280Z,6.95
2022-08-18T23:34:17.425Z,7.10
2022-08-18T23:36:46.898Z,6.65
2022-08-18T23:39:15.216Z,6.82
2022-08-18T23:41:42.996Z,7.00
2022-08-18T23:44:11.446Z,6.55
2022-08-18T23:46:40.543Z,7.22
2022-08-18T23:49:10.765Z,6.35
2022-08-18T23:51:42.603Z,6.82
2022-08-18T23:54:13.500Z,6.88
2022-08-18T23:56:41.564Z,7.00
2022-08-18T23:59:09.780Z,6.78
